arxmliv
arxmliv build tool
 
KWARC group
LaTeXML
About
   
 

Detailed info

Back to Homepage

List of missing_macros

No. Date Filename num_warningnum_errornum_xmargok_xmargnum_xmathok_xmathMissing macros
69801 2013-03-17 00:31:06 /9403/hep-th.9403197 11530000[\VOFFSET, \pagebottomfiller, \HOFFSET].
69802 2013-03-17 00:30:17 /9403/hep-th.9403196 2510000[\Bbb].
69803 2013-03-17 00:30:11 /9403/hep-th.9403189 72410000[\size, \boxtimes, \shape].
69804 2013-03-17 00:29:51 /9403/hep-th.9403143 167690000[\N, \particlebackx, \particlebacky, \photon, \pmidx, \pbacky, \SW, \photonbackx, \pbackx, \pmidy, \pfrontx, \SE, \E, \photonfronty, \frontstemmed, \fermion, \pfronty, \particlefronty, \particlefrontx, \REG, \drawline, \photonfrontx, \NW, \drawarrow, \ATT
69805 2013-03-17 00:29:14 /9403/math.9403203 5520000[Align, \+].
69806 2013-03-17 00:29:05 /9403/hep-th.9403182 18120000[\ref, \tenpoint, \vol, \endref, \paper, \pageheight, \pages, \yr, \jour, \by, \no, \eightpoint].
69807 2013-03-17 00:28:55 /9403/hep-th.9403184 810000[\a].
69808 2013-03-17 00:28:40 /9403/hep-th.9403191 11210000[\@ignoretrue].
69809 2013-03-17 00:27:39 /9403/hep-th.9403175 110000[{centering}].
69810 2013-03-17 00:27:28 /9403/hep-th.9403163 580000[\@thanks].
69811 2013-03-17 00:27:03 /9403/hep-th.9403157 17130000[\@thanks].
69812 2013-03-17 00:26:46 /9403/hep-th.9403153 35810000[\\].
69813 2013-03-17 00:26:44 /9403/hep-th.9403124 132120000[\@thanks, \@highpenalty].
69814 2013-03-17 00:25:37 /9403/hep-th.9403159 510000[\chapterlabel].
69815 2013-03-17 00:25:34 /9403/hep-th.9403148 3420000[\tenpoint, \eightpoint].
69816 2013-03-17 00:25:06 /9403/hep-th.9403133 9220000[{centering}].
69817 2013-03-17 00:24:34 /9403/hep-th.9403149 210000[\comtwo].
69818 2013-03-17 00:24:14 /9403/hep-th.9403136 133210000[\displ@y].
69819 2013-03-17 00:23:06 /9403/hep-th.9403112 15010000[\cdotp].
69820 2013-03-17 00:23:03 /9403/hep-th.9403123 530000[\@thanks, \@topnum, \@maketitle].
69821 2013-03-17 00:22:26 /9403/hep-th.9403110 610000[\edxy].
69822 2013-03-17 00:22:04 /9403/hep-th.9403082 90180000[\N, \pmidx, \pmidy, \E, \FLIPPED, \gluon, \CURLY, \fermion, \REG, \drawline, \drawarrow, \ATTIP, \scalar, \FLIPPEDCURLY, \NE, \W, \gluonlengthy]; 1 missing file[FEYNMAN].
69823 2013-03-17 00:21:07 /9403/hep-th.9403081 4910000[\bezier].
69824 2013-03-17 00:20:32 /9403/hep-th.9403044 2920000[\Bbb]; 1 missing file[amssymbols.sty].
69825 2013-03-17 00:20:17 /9403/hep-th.9403083 1310000[\xipt].
69826 2013-03-17 00:20:13 /9403/hep-th.9403086 40560000[\sm, \slvac, \lenwmod, \linw, \abew, \mode, \pcNtwo, \bosogh, \invpct, \slvacbo, \BRSTtwo, \NRlin, \Nw, \BRST, \Ntoptwo, \simone, \pcN, \Ntop, \amptwo, \phyverfin, \physv, \NRab, \tBRSTNN, \lsw, \Nwlin, \bc, \fsub, \tBRSTN, \topvac, \pcop, \simtwo, \BRST
69827 2013-03-17 00:19:49 /9403/hep-th.9403068 7910000[\eightpoint].
69828 2013-03-17 00:18:00 /9403/hep-th.9403052 910000[{subequations}].
69829 2013-03-17 00:17:28 /9403/hep-th.9403040 32170000[\acorr, \satisfy, \groundlc, \antigreen, \loopamp, \psieqq, \xcorr, \supsymm, \lightc, \lambthet, \spinstru, \fgauge, \traceopen, \chiral, \dircon, \tracegso, \periogreen].
69830 2013-03-17 00:16:55 /9403/hep-th.9403046 1810000[\skew].
69831 2013-03-17 00:16:54 /9403/hep-th.9403032 710000[\twlrm].
69832 2013-03-17 00:15:27 /9403/hep-th.9403011 550000[\examplename, \theequation, \arabic, \eightpoint].
69833 2013-03-17 00:15:04 /9403/hep-ph.9403411 7660000[\eg, \sfrac, \dst, \ie, \etc, \headings]; 1 missing file[susspsty1.tex.cls].
69834 2013-03-17 00:14:37 /9403/hep-th.9403004 2140000[\series, \evec, \ex@, \normalshape].
69835 2013-03-17 00:13:54 /9403/hep-ph.9403397 2110000[\@cite].
69836 2013-03-17 00:12:59 /9403/hep-ph.9403405 1810000[\address].
69837 2013-03-17 00:12:17 /9403/hep-ph.9403394 1810000[\mbf].
69838 2013-03-17 00:12:16 /9403/hep-ph.9403384 6830000[\rotate].
69839 2013-03-17 00:12:01 /9403/hep-ph.9403378 27130000[\endreference, \section, \tenpoint, \cite, \ListReferences, \slashchar, \superrefsfalse, \EQN, Align, \journal, \reference, \mathinner, \Eq].
69840 2013-03-17 00:11:29 /9403/hep-ph.9403343 18410000[\epsffileline].
69841 2013-03-17 00:10:05 /9403/hep-ph.9403362 6490000[\endtable, \nr, \begintable, \thicksize, \snu, \wtilde]; 1 missing file[tables.tex].
69842 2013-03-17 00:09:44 /9403/hep-ph.9403353 99370000[\setplotarea, \!ybot, \setlinear, \!xleft, \ellipticalarc, \arrow, \!picbox, \!xright, \plot, \!ytop, \circulararc, \putrule].
69843 2013-03-17 00:09:22 /9403/hep-ph.9403335 3310000[{instit}].
69844 2013-03-17 00:08:55 /9403/hep-ph.9403340 2130000[\psfig]; 2 missing files[psfig, refs.tmp].
69845 2013-03-17 00:08:33 /9403/hep-ph.9403323 210000[\cdotp].
69846 2013-03-17 00:08:06 /9403/hep-ph.9403313 250000[\@thanks].
69847 2013-03-17 00:07:47 /9403/hep-ph.9403301 82540000[\dq].
69848 2013-03-17 00:07:19 /9403/hep-ph.9403304 13520000[\extralineskip, \newlength].
69849 2013-03-17 00:05:55 /9403/hep-ph.9403284 11130000[\j@ur, \headskip, \crthick, \endtable, \iftwelv@, \frontpageskip, \titleparagraphs, \begintable, \spacecheck, \sectionminspace]; 1 missing file[tables].
69850 2013-03-17 00:05:34 /9403/hep-ph.9403289 4010000[\theappendix].
69851 2013-03-17 00:05:08 /9403/hep-ph.9403224 395110000[\psrotatefirst]; 1 missing file[extras.sty].
69852 2013-03-17 00:04:13 /9403/hep-ph.9403265 1340000[\setdec, {instit}].
69853 2013-03-17 00:04:07 /9403/hep-ph.9403268 9320000[\FERMILABPub, {reflist}, \ltap]; 2 missing files[style, math_macros].
69854 2013-03-17 00:03:11 /9403/hep-ph.9403233 10410000[\rotate].
69855 2013-03-16 23:59:03 /9403/hep-ph.9403216 7610000[\theappendix].
69856 2013-03-16 23:59:01 /9403/hep-ph.9403220 610000[\setcounter].
69857 2013-03-16 23:58:49 /9403/hep-ph.9403215 31120000[\endpage, \eq, \foot, \titlestyle, \point, \eg, \chapter, \FRONTPAGE, \abstract, \pointbegin, \ie, \author].
69858 2013-03-16 23:58:41 /9403/hep-ph.9403204 21420000[\startphantom, \N, \Ythree, \Xone, \Xfour, \gluonfrontx, \particlemidy, \Xthree, \gluon, \fermion, \Xtwo, \REG, \drawline, \fermionbackx, \fermionbacky, \gluonbackx, \W, \stopphantom, \SW, \fermionfronty, \FLIPPEDCENTRAL, \SE, \E, \particlemidx, \FLIPPED
69859 2013-03-16 23:58:14 /9403/hep-ph.9403210 760000[\firstfigfalse, \psfig, \firsttabfalse]; 1 missing file[psfig].
69860 2013-03-16 23:57:59 /9403/hep-lat.9403005 630000[\epsfbox, \fpsbox, \epsfxsize].
69861 2013-03-16 23:57:31 /9403/hep-lat.9403013 320000[{instit}]; 1 missing file[version2.sty].
69862 2013-03-16 23:56:58 /9403/gr-qc.9403049 6510000[\dosupereject, \vfootnote].
69863 2013-03-16 23:56:53 /9403/gr-qc.9403052 14110000[\Prob, \OMtwo, \eqs, \eqf, \HJeq, \eqnalign, \DGON, \eqt, \OMfour, \DGONN]; 1 missing file[phyzzx.plus].
69864 2013-03-16 23:56:47 /9403/gr-qc.9403045 16140000[\rlvec, \bra, \drawdim, \Tr, \btexdraw, \R, \etexdraw, \htext, \Z, \linewd, \id, \move, \ket, \textref].
69865 2013-03-16 23:55:54 /9403/gr-qc.9403033 13110000[\re].
69866 2013-03-16 23:54:10 /9403/gr-qc.9403014 80140000[\bfA].
69867 2013-03-16 23:54:07 /9403/funct-an.9403001 1840000[\ldotp, \examplename, \mathinner, \arabic].
69868 2013-03-16 23:53:38 /9403/comp-gas.9403003 5610000[\theappendix].
69869 2013-03-16 23:53:32 /9403/gr-qc.9403007 2410000[\mathhexbox].
69870 2013-03-16 23:52:45 /9403/cond-mat.9403093 1710000[\setdec].
69871 2013-03-16 23:52:27 /9403/cond-mat.9403081 21220000[{instit}]; 1 missing file[version2.sty].
69872 2013-03-16 23:52:27 /9403/cond-mat.9403095 130000[Align, \+, \columns].
69873 2013-03-16 23:52:22 /9403/cond-mat.9403078 4020000[{instit}]; 1 missing file[version2.sty].
69874 2013-03-16 23:51:57 /9403/cond-mat.9403074 420000[\a, {centering}].
69875 2013-03-16 23:51:32 /9403/cond-mat.9403076 820000[{instit}]; 1 missing file[version2.sty].
69876 2013-03-16 23:51:30 /9403/cond-mat.9403059 1620000[{instit}]; 1 missing file[version2.sty].
69877 2013-03-16 23:51:02 /9403/cond-mat.9403039 2220000[{instit}]; 1 missing file[version2.sty].
69878 2013-03-16 23:50:55 /9403/cond-mat.9403062 010000[{instit}].
69879 2013-03-16 23:50:44 /9403/cond-mat.9403050 220000[\psfig]; 1 missing file[psfig].
69880 2013-03-16 23:50:04 /9403/cond-mat.9403046 1710000[{instit}].
69881 2013-03-16 23:49:25 /9403/cond-mat.9403018 530000[Align, \+, \columns].
69882 2013-03-16 23:48:10 /9403/comp-gas.9403005 13120000[{instit}, \nonum, \epsffile].
69883 2013-03-16 23:47:25 /9403/astro-ph.9403048 080000[\arcsec, \thesaurus, \institute, \acknowledgements, \ga, \la, \keywords]; 1 missing file[laa.sty].
69884 2013-03-16 23:47:17 /9403/astro-ph.9403050 0100000[\arcmin, \arcsec, \thesaurus, \institute, \acknowledgements, \ga, \keywords]; 1 missing file[laa.sty].
69885 2013-03-16 23:47:10 /9403/chem-ph.9403005 1100000[\citenum].
69886 2013-03-16 23:46:42 /9403/astro-ph.9403060 3270000[\@twosidetrue, \headsep, \evensidemargin, \@addtoreset, \textheight, \textwidth, \oddsidemargin].
69887 2013-03-16 23:46:34 /9403/chem-ph.9403008 3130000[Align, \+, \columns].
69888 2013-03-16 23:46:31 /9403/astro-ph.9403049 090000[\arcmin, \institute, \ga, \la, \keywords, \thesaurus, \arcsec, \acknowledgements]; 1 missing file[laa.sty].
69889 2013-03-16 23:46:24 /9403/astro-ph.9403062 010000[\picplace].
69890 2013-03-16 23:46:13 /9403/astro-ph.9403019 4640000[\thesaurus, \institute, \offprints, \keywords]; 1 missing file[Iaa.cls].
69891 2013-03-16 23:45:47 /9403/chao-dyn.9403004 320000[\skew]; 1 missing file[chao-dyn.9403004.aux].
69892 2013-03-16 23:44:58 /9403/astro-ph.9403041 430000[Align, \+, \columns].
69893 2013-03-16 23:44:48 /9403/astro-ph.9403032 8820000[\theappendix, Align].
69894 2013-03-16 23:44:47 /9403/astro-ph.9403024 120000[Align, \+].
69895 2013-03-16 23:44:27 /9403/alg-geom.9403015 9110000[\goth, \ltimes, {CD}, \boxplus, \rtimes, \newsymbol].
69896 2013-03-16 23:44:08 /9403/astro-ph.9403033 120000[{sidetable}]; 1 missing file[side.sty].
69897 2013-03-16 23:43:00 /9403/alg-geom.9403014 580000[\Bbb, \ncong, \newsymbol, \frak].
69898 2013-03-16 23:42:38 /9403/alg-geom.9403001 1810000[\examplename].
69899 2013-03-16 23:42:17 /9403/astro-ph.9403002 2250000[\ref, \titlea, \KEYWORDS, \AUTHOR, \THESAURUS, \maketitle, \OFFPRINTS, \FOOTNOTE, \ga, \begref, \titleb, \INSTITUTE, \endfig, \begfig, \DATE, \endref, \ABSTRACT, \AUTHORRUNNINGHEAD, \la, \figure, \MAINTITLERUNNINGHEAD, \acknow, \MAINTITLE, \farcs]; 1 mis
69900 2013-03-16 23:41:39 /9403/alg-geom.9403005 5350000[\examplename, \theequation, \arabic].
69901 2013-03-16 23:40:42 /9403/alg-geom.9403006 2430000[\Bbb, \goth]; 1 missing file[mssymb.sty].
69902 2013-03-16 23:38:01 /9402/nucl-th.9402015 810000[\overlay].
69903 2013-03-16 23:35:46 /9402/math.9402211 1410000[\columns].
69904 2013-03-16 23:35:17 /9402/math.9402210 120000[\cmbsyfam].
69905 2013-03-16 23:33:12 /9402/hep-th.9402130 210000[\eightpoint].
69906 2013-03-16 23:31:31 /9402/hep-th.9402127 18110000[\ref, \tenpoint, \vol, \paper, \endref, \pages, \jour, \yr, \by, \no, \eightpoint].
69907 2013-03-16 23:30:56 /9402/hep-th.9402115 2110000[\oddsidemargin].
69908 2013-03-16 23:30:51 /9402/hep-th.9402072 26320000[\psfig].
69909 2013-03-16 23:29:34 /9402/hep-th.9402097 34680000[\@picbox].
69910 2013-03-16 23:29:03 /9402/hep-th.9402095 10510000[\@magscale].
69911 2013-03-16 23:26:21 /9402/hep-th.9402051 2530000[\psfig, \refmark]; 1 missing file[psfig].
69912 2013-03-16 23:25:35 /9402/hep-th.9402047 71180000[\tengt, \list, \twelvegt, \twelvemin, \alloc@, \seventeengt, \fourteengt, \tenmin, \listcount, \wlog, \jfont, \fourteenmin, \seventeenmin].
69913 2013-03-16 23:24:38 /9402/hep-th.9402015 4640000[\int, \listcount, \list, \alloc@].
69914 2013-03-16 23:23:28 /9402/hep-th.9402010 43130000[\N, \fermion, \pmidx, \REG, \drawline, \NW, \drawarrow, \pmidy, \ATTIP, \E, \NE, \W]; 1 missing file[feynman].
69915 2013-03-16 23:21:54 /9402/hep-th.9402016 2410000[\@@underline].
69916 2013-03-16 23:19:39 /9402/hep-ph.9402357 131310000[\j@ur, \headskip, \crthick, \EqEigenFTS, \VSO, \intop, \iftwelv@, \eqname, \frontpageskip, \iffrontpage, \begintable, \ZInv, \XInv, \spacecheck, \sectionminspace, \YInv, \endtable, \nr, \paperfootline, \EqEigenOTT, \VSS, Align, \VFF, \titleparagraphs, \i
69917 2013-03-16 23:18:59 /9402/hep-ph.9402363 1110000[\rotate].
69918 2013-03-16 23:18:44 /9402/hep-ph.9402347 81130000[\YourChoice].
69919 2013-03-16 23:17:26 /9402/hep-ph.9402348 530000[\endtable, \begintable]; 1 missing file[tables].
69920 2013-03-16 23:17:07 /9402/hep-ph.9402351 030000[\endtable, \begintable]; 1 missing file[tables].
69921 2013-03-16 23:16:55 /9402/hep-ph.9402334 1010000[\cdotp].
69922 2013-03-16 23:13:53 /9402/hep-ph.9402315 7140000[\put, \setplotarea, \ellipticalarc, \savelinesandcurves, \linethickness, \plot, \circulararc, \setcoordinatesystem, \beginpicture, \setdashes, \endpicture, \putrule, \setsolid]; 1 missing file[refs.tmp].
69923 2013-03-16 23:13:41 /9402/hep-ph.9402322 6927950000[\@thanks, Align, \endcount].
69924 2013-03-16 23:11:32 /9402/hep-ph.9402298 260000[\theappendix, \GCirc, \Line, \Vertex, \ArrowLine, \Photon].
69925 2013-03-16 23:09:19 /9402/hep-ph.9402268 1450000[\mw, \mhpm, \gam, \epem, \ibid].
69926 2013-03-16 23:08:56 /9402/hep-ph.9402272 1030000[\firstfigfalse, \firsttabfalse]; 1 missing file[psfig].
69927 2013-03-16 23:08:41 /9402/hep-ph.9402255 440000[\psfig]; 1 missing file[psfig].
69928 2013-03-16 23:08:36 /9402/hep-ph.9402254 4160000[\@open@row, \@thanks, \@topnum, \@date, \@title].
69929 2013-03-16 23:07:44 /9402/hep-ph.9402252 7150000[\twocols, \lock, \ifreferenceopen, \refindent, \referenceopenfalse, \itemsize, \frontpageskip, \unlock, \fullhsize, \referencewrite, \spacecheck, \referenceminspace, \Closeout]; 1 missing file[hep-ph.9402252.refs].
69930 2013-03-16 23:06:53 /9402/hep-ph.9402231 650000[\oneandahalfspace, \journal, \singlespace, \endit]; 1 missing file[jnl].
69931 2013-03-16 23:06:38 /9402/hep-ph.9402205 96510000[\setshadegrid, \!xleft, \vshade, \plot, \axis, \setcoordinatesystem, \setsolid, \setquadratic, \!ybot, \setplotarea, \setplotsymbol, \!picbox, \!xright, \inboundscheckon, \!ytop, \setshadesymbol, \setdashes, \putrule].
69932 2013-03-16 23:06:26 /9402/hep-ph.9402217 250000[\today].
69933 2013-03-16 23:06:13 /9402/hep-ph.9402206 3310000[\N, \bigphotons, \particlebackx, \particlebacky, \photon, \seglength, \photonbackx, \SE, \particlemidy, \particlemidx, \E, \FLIPPED, \gaplength, \gluon, \fermion, \particlefronty, \particlefrontx, \REG, \fermionbackx, \drawline, \THICKLINES, \fermionback
69934 2013-03-16 23:05:50 /9402/hep-lat.9402020 2110000[{centering}].
69935 2013-03-16 23:05:30 /9402/gr-qc.9402014 20230000[{instit}, \nonum]; 1 missing file[version2.sty].
69936 2013-03-16 23:05:15 /9402/gr-qc.9402042 32820000[\headskip, \p@bblock, \PH@SR@V, \ifp@bblock, \chapterminspace, \chapterskip, \chapterreset, \spacecheck, \rel@x, \wlog, \ifPhysRev].
69937 2013-03-16 23:05:15 /9402/hep-lat.9402019 220000[{instit}]; 1 missing file[version2.sty].
69938 2013-03-16 23:04:22 /9402/gr-qc.9402033 61360000[\three, \twentyone, \twenty, \lsim, \twentyfive, \twentyeight, \seven, \seventeen, \six, \nineteen, \thirteen, \four, \twentytwo, \twelve, \sixteen, \eighteen, \twentyfour, \FRONTPAGE, \twentysix, \one, \endpage, \nine, \two, \ten, \eleven, \fourteen, \n
69939 2013-03-16 23:03:25 /9402/gr-qc.9402024 030000[{instit}].
69940 2013-03-16 23:03:23 /9402/gr-qc.9402009 1520000[\e, \endtitle].
69941 2013-03-16 23:02:55 /9402/cond-mat.9402100 8590000[\refitem].
69942 2013-03-16 23:02:54 /9402/cond-mat.9402110 510000[{instit}].
69943 2013-03-16 23:01:59 /9402/cond-mat.9402109 610000[\theappendix].
69944 2013-03-16 23:01:39 /9402/cond-mat.9402085 10330000[\QATOPD, \QATOP]; 1 missing file[qqa4lart.sty].
69945 2013-03-16 23:01:12 /9402/cond-mat.9402070 1420000[{instit}]; 1 missing file[version2.sty].
69946 2013-03-16 23:01:12 /9402/cond-mat.9402083 0130000[\@open@row, \@close@row].
69947 2013-03-16 23:00:54 /9402/cond-mat.9402077 25310000[\setplotarea, \!ybot, \!xleft, \setdots, \!picbox, \!xright, \hshade, \betweenarrows, \!ytop, \plot, \setcoordinatesystem, \setdashes].
69948 2013-03-16 23:00:30 /9402/cond-mat.9402055 42460000[\dist, \firstmom, \operl, \operr, \choice, \PHYSREV, \address, \nnm, \gene, \kernel, \abstract, \stnnm, \ack, \greenf, \defvel, \simpmain, \steadygen, \init, \fst, \fungen, \nopubblock, \twopoint, \title, \twoeleven, \stf, \signo, \veltwo, \mom, \recur,
69949 2013-03-16 23:00:20 /9402/cond-mat.9402051 620000[{instit}, \receipt].
69950 2013-03-16 23:00:15 /9402/cond-mat.9402040 1010000[\columns].
69951 2013-03-16 23:00:15 /9402/cond-mat.9402056 1320000[{instit}]; 1 missing file[version2.sty].
69952 2013-03-16 22:59:59 /9402/cond-mat.9402047 1520000[{instit}]; 1 missing file[version2.sty].
69953 2013-03-16 22:59:51 /9402/cond-mat.9402030 1110000[{instit}].
69954 2013-03-16 22:59:33 /9402/chao-dyn.9402006 150000[\shortcite, \real, \cosec]; 2 missing files[bifchaos.sty, my.sty].
69955 2013-03-16 22:59:24 /9402/cond-mat.9402011 2150000[{instit}]; 1 missing file[version2.sty].
69956 2013-03-16 22:57:42 /9402/astro-ph.9402042 25210000[\ref, \titlea, \KEYWORDS, \AUTHOR, \THESAURUS, \titlec, \maketitle, \OFFPRINTS, \begref, \titleb, \INSTITUTE, \fonote, \newline, \endfig, \begfig, \DATE, \endref, \ABSTRACT, \figure, \acknow, \MAINTITLE].
69957 2013-03-16 22:57:13 /9402/astro-ph.9402061 3190000[\titlea, \KEYWORDS, \AUTHOR, \THESAURUS, \begfigwid, \maketitle, \OFFPRINTS, \begref, \sun, \INSTITUTE, \endfig, \begfig, \DATE, \endref, \ABSTRACT, \figure, \acknow, \MAINTITLE]; 1 missing file[AAmac].
69958 2013-03-16 22:57:07 /9402/astro-ph.9402040 4110000[\MN, \AJ, \APJS, \institute, {opening}, \AAP, \evenpagefooter, \APJ, \oddpagefooter, \PASP]; 1 missing file[memsait.sty].
69959 2013-03-16 22:57:02 /9402/alg-geom.9402010 67100000[\eightpoint].
69960 2013-03-16 22:56:49 /9402/astro-ph.9402031 710000[\oddsidemargin].
69961 2013-03-16 22:56:35 /9402/astro-ph.9402036 370000[\\, \lsun, \hmpc, \kms, \arcm, \et, \msun].
69962 2013-03-16 22:56:31 /9402/astro-ph.9402025 2760000[{planotable}].
69963 2013-03-16 22:55:54 /9402/astro-ph.9402016 180000[\picplace, \inst, \thesaurus, \offprints, \institute, \acknowledgements, \keywords]; 1 missing file[laa.sty].
69964 2013-03-16 22:55:47 /9402/alg-geom.9402006 297530000[\eusmfam, \eightpoint].
69965 2013-03-16 22:55:32 /9401/nucl-th.9401012 11580000[\theappendix, \newcounter].
69966 2013-03-16 22:55:24 /9402/alg-geom.9402007 530000[{CD}].
69967 2013-03-16 22:55:20 /9402/astro-ph.9402005 130000[Align, \+, \columns].
69968 2013-03-16 22:55:08 /9402/alg-geom.9402003 1110000[\goth].
69969 2013-03-16 22:54:55 /9401/nucl-th.9401014 4040000[\psfig, \text]; 2 missing files[psfig, scr.sty].
69970 2013-03-16 22:54:00 /9401/patt-sol.9401006 010000[\theappendix].
69971 2013-03-16 22:53:27 /9401/math.9401217 6660000[\subsetneq, \smallsetminus, \geqslant, \leqslant, \upharpoonright, \Vdash].
69972 2013-03-16 22:53:26 /9401/nucl-th.9401008 2810000[\theappendix].
69973 2013-03-16 22:53:06 /9401/math.9401224 4790000[\qopname@, \eusmfam, \psfig, \eightpoint]; 1 missing file[psfig.tex].
69974 2013-03-16 22:53:03 /9401/math.9401216 4440000[\preccurlyeq, \smallsetminus, \upharpoonright, \beth].
69975 2013-03-16 22:52:37 /9401/math.9401218 4130000[\blacksquare, \restriction, \Vdash].
69976 2013-03-16 22:52:27 /9401/math.9401220 450000[\RM, \Cal, {CD}, \ratitle]; 1 missing file[bull-art].
69977 2013-03-16 22:52:24 /9401/math.9401221 930000[\scr, \ratitle]; 1 missing file[bull-art].
69978 2013-03-16 22:52:12 /9401/math.9401219 0120000[\cmonth, \columns, \endml, \ml, \keyedby, \cvolno, \cpgs, \cvol, \ratitle, \cyear]; 1 missing file[bull-ppt].
69979 2013-03-16 22:52:06 /9401/math.9401209 560000[\theequation].
69980 2013-03-16 22:52:03 /9401/math.9401222 0110000[\cu, \endcu, \cmonth, \endml, \ml, \cvolno, \cpgs, \cvol, \cyear]; 1 missing file[bull-ppt].
69981 2013-03-16 22:51:53 /9401/math.9401223 0110000[\cmonth, \shortauthor, \keyedby, \shorttitle, \cvolno, \cpgs, \cvol, \ratitle, \cyear]; 1 missing file[bull-ppt].
69982 2013-03-16 22:51:48 /9401/math.9401205 5460000[{cor}, {prop}, {lemma}, {theorem}, {rem}, \newtheorem].
69983 2013-03-16 22:51:14 /9401/hep-th.9401167 5930000[\VOFFSET, \pagebottomfiller, \HOFFSET].
69984 2013-03-16 22:50:29 /9401/hep-th.9401155 182140000[\tenpoint, \endpage, \cite, \endtitlepage, \references, \subhead, \head, \endreferences, \oneandathirdspace, \refis, \beginparmode, \(, \taghead]; 1 missing file[jnl].
69985 2013-03-16 22:49:15 /9401/hep-th.9401159 0100000[\puteqn, \putref, \section, {putreferences}, \typesize, \bigfonts, \sectionnumstyle, \sectionnum, \eqnlabel]; 1 missing file[jytex.tex].
69986 2013-03-16 22:49:01 /9401/hep-th.9401144 010000[{centering}].
69987 2013-03-16 22:48:51 /9401/hep-th.9401147 310000[\twelvepoint].
69988 2013-03-16 22:47:23 /9401/hep-th.9401126 330000[\EM, \amp, \eqname].
69989 2013-03-16 22:47:05 /9401/hep-th.9401113 4120000[\@thanks, \@topnum, \@title].
69990 2013-03-16 22:45:55 /9401/hep-th.9401117 9820000[\Bbb]; 1 missing file[amssymbols.sty].
69991 2013-03-16 22:45:51 /9401/hep-th.9401103 4520000[\qucf, \vcf].
69992 2013-03-16 22:45:03 /9401/hep-th.9401096 37910000[\PRrefmark].
69993 2013-03-16 22:41:28 /9401/hep-th.9401091 7950000[\topmargin, \evensidemargin, \textheight, \oddsidemargin, \textwidth].
69994 2013-03-16 22:41:27 /9401/hep-th.9401090 2030000[Align, \+, \columns].
69995 2013-03-16 22:40:55 /9401/hep-th.9401063 2720000[\ulpha, \consff].
69996 2013-03-16 22:37:58 /9401/hep-th.9401047 410000[\eightpoint].
69997 2013-03-16 22:36:58 /9401/hep-th.9401039 1820000[\+, \columns].
69998 2013-03-16 22:36:54 /9401/hep-th.9401038 1050000[\VOFFSET, \pagebottomfiller, \HOFFSET].
69999 2013-03-16 22:36:04 /9401/hep-th.9401025 21110000[\oddsidemargin].
70000 2013-03-16 22:35:22 /9401/hep-th.9401015 6920000[\mapdown]; 1 missing file[JAmatport].
<<< >>>

[0] [200] [400] [600] [800] [1000] [1200] [1400] [1600] [1800] [2000] [2200] [2400] [2600] [2800] [3000] [3200] [3400] [3600] [3800] [4000] [4200] [4400] [4600] [4800] [5000] [5200] [5400] [5600] [5800] [6000] [6200] [6400] [6600] [6800] [7000] [7200] [7400] [7600] [7800] [8000] [8200] [8400] [8600] [8800] [9000] [9200] [9400] [9600] [9800] [10000] [10200] [10400] [10600] [10800] [11000] [11200] [11400] [11600] [11800] [12000] [12200] [12400] [12600] [12800] [13000] [13200] [13400] [13600] [13800] [14000] [14200] [14400] [14600] [14800] [15000] [15200] [15400] [15600] [15800] [16000] [16200] [16400] [16600] [16800] [17000] [17200] [17400] [17600] [17800] [18000] [18200] [18400] [18600] [18800] [19000] [19200] [19400] [19600] [19800] [20000] [20200] [20400] [20600] [20800] [21000] [21200] [21400] [21600] [21800] [22000] [22200] [22400] [22600] [22800] [23000] [23200] [23400] [23600] [23800] [24000] [24200] [24400] [24600] [24800] [25000] [25200] [25400] [25600] [25800] [26000] [26200] [26400] [26600] [26800] [27000] [27200] [27400] [27600] [27800] [28000] [28200] [28400] [28600] [28800] [29000] [29200] [29400] [29600] [29800] [30000] [30200] [30400] [30600] [30800] [31000] [31200] [31400] [31600] [31800] [32000] [32200] [32400] [32600] [32800] [33000] [33200] [33400] [33600] [33800] [34000] [34200] [34400] [34600] [34800] [35000] [35200] [35400] [35600] [35800] [36000] [36200] [36400] [36600] [36800] [37000] [37200] [37400] [37600] [37800] [38000] [38200] [38400] [38600] [38800] [39000] [39200] [39400] [39600] [39800] [40000] [40200] [40400] [40600] [40800] [41000] [41200] [41400] [41600] [41800] [42000] [42200] [42400] [42600] [42800] [43000] [43200] [43400] [43600] [43800] [44000] [44200] [44400] [44600] [44800] [45000] [45200] [45400] [45600] [45800] [46000] [46200] [46400] [46600] [46800] [47000] [47200] [47400] [47600] [47800] [48000] [48200] [48400] [48600] [48800] [49000] [49200] [49400] [49600] [49800] [50000] [50200] [50400] [50600] [50800] [51000] [51200] [51400] [51600] [51800] [52000] [52200] [52400] [52600] [52800] [53000] [53200] [53400] [53600] [53800] [54000] [54200] [54400] [54600] [54800] [55000] [55200] [55400] [55600] [55800] [56000] [56200] [56400] [56600] [56800] [57000] [57200] [57400] [57600] [57800] [58000] [58200] [58400] [58600] [58800] [59000] [59200] [59400] [59600] [59800] [60000] [60200] [60400] [60600] [60800] [61000] [61200] [61400] [61600] [61800] [62000] [62200] [62400] [62600] [62800] [63000] [63200] [63400] [63600] [63800] [64000] [64200] [64400] [64600] [64800] [65000] [65200] [65400] [65600] [65800] [66000] [66200] [66400] [66600] [66800] [67000] [67200] [67400] [67600] [67800] [68000] [68200] [68400] [68600] [68800] [69000] [69200] [69400] [69600] [69800] [70000] [70200] [70400] [70600] [70800] [71000] [71200] [71400] [71600] [71800] [72000] [72200] [72400] [72600] [72800] [73000] [73200] [73400] [73600] [73800] [74000] [74200] [74400] [74600] [74800] [75000] [75200] [75400] [75600] [75800] [76000] [76200] [76400] [76600] [76800] [77000] [77200] [77400] [77600] [77800] [78000] [78200] [78400] [78600] [78800] [79000] [79200] [79400] [79600] [79800] [80000] [80200] [80400] [80600] [80800] [81000] [81200] [81400] [81600] [81800] [82000] [82200] [82400] [82600] [82800] [83000] [83200] [83400] [83600] [83800] [84000] [84200] [84400] [84600] [84800] [85000] [85200] [85400] [85600] [85800] [86000] [86200] [86400] [86600] [86800] [87000] [87200] [87400] [87600] [87800] [88000] [88200] [88400] [88600] [88800] [89000] [89200] [89400] [89600] [89800] [90000] [90200] [90400] [90600] [90800] [91000] [91200] [91400] [91600] [91800] [92000] [92200] [92400] [92600] [92800] [93000] [93200] [93400] [93600] [93800] [94000] [94200] [94400] [94600] [94800] [95000] [95200] [95400] [95600] [95800] [96000] [96200] [96400] [96600] [96800] [97000] [97200] [97400] [97600] [97800] [98000] [98200] [98400] [98600] [98800] [99000] [99200] [99400] [99600] [99800] [100000] [100200] [100400] [100600] [100800] [101000] [101200] [101400] [101600] [101800] [102000] [102200] [102400] [102600] [102800] [103000] [103200] [103400] [103600] [103800] [104000] [104200] [104400] [104600] [104800] [105000] [105200] [105400] [105600] [105800] [106000] [106200] [106400] [106600] [106800] [107000] [107200] [107400] [107600] [107800] [108000] [108200] [108400] [108600] [108800] [109000] [109200] [109400] [109600] [109800] [110000] [110200] [110400] [110600] [110800] [111000] [111200] [111400] [111600] [111800] [112000] [112200] [112400] [112600] [112800] [113000] [113200] [113400] [113600] [113800] [114000] [114200] [114400] [114600] [114800] [115000] [115200] [115400] [115600] [115800] [116000] [116200] [116400] [116600] [116800] [117000] [117200] [117400] [117600] [117800] [118000] [118200] [118400] [118600] [118800] [119000] [119200] [119400] [119600] [119800] [120000] [120200] [120400] [120600] [120800] [121000] [121200] [121400] [121600] [121800] [122000] [122200] [122400] [122600] [122800] [123000] [123200] [123400] [123600] [123800] [124000] [124200] [124400] [124600] [124800] [125000] [125200] [125400] [125600] [125800] [126000] [126200] [126400] [126600] [126800] [127000] [127200] [127400] [127600] [127800] [128000] [128200] [128400] [128600] [128800] [129000] [129200] [129400] [129600] [129800] [130000] [130200] [130400] [130600] [130800] [131000] [131200] [131400] [131600] [131800] [132000] [132200] [132400] [132600] [132800] [133000] [133200] [133400] [133600] [133800] [134000] [134200] [134400] [134600] [134800] [135000] [135200] [135400] [135600] [135800] [136000] [136200] [136400] [136600] [136800] [137000] [137200] [137400] [137600] [137800] [138000] [138200] [138400] [138600] [138800] [139000] [139200] [139400] [139600] [139800] [140000] [140200] [140400] [140600] [140800] [141000] [141200] [141400] [141600] [141800] [142000] [142200] [142400] [142600] [142800] [143000] [143200] [143400] [143600] [143800] [144000] [144200] [144400] [144600] [144800] [145000] [145200] [145400] [145600] [145800] [146000] [146200] [146400] [146600] [146800] [147000] [147200] [147400] [147600] [147800] [148000] [148200] [148400] [148600] [148800] [149000] [149200] [149400] [149600] [149800] [150000] [150200] [150400] [150600] [150800] [151000] [151200] [151400] [151600] [151800] [152000] [152200] [152400] [152600] [152800] [153000] [153200] [153400] [153600] [153800] [154000] [154200] [154400] [154600] [154800] [155000] [155200] [155400] [155600] [155800] [156000] [156200] [156400] [156600] [156800] [157000] [157200] [157400] [157600] [157800] [158000] [158200] [158400] [158600] [158800] [159000] [159200] [159400] [159600] [159800] [160000] [160200] [160400] [160600] [160800] [161000] [161200] [161400] [161600] [161800] [162000] [162200] [162400] [162600] [162800] [163000] [163200] [163400] [163600] [163800] [164000] [164200] [164400] [164600]
 
  The service has been written by
Heinrich Stamerjohanns